sensor_id;sensor_type;location;lat;lon;timestamp;P1;durP1;ratioP1;P2;durP2;ratioP2
19059;SDS011;9663;48.996;8.334;2023-02-11T00:00:55;10.95;;;5.40;;
19059;SDS011;9663;48.996;8.334;2023-02-11T00:03:20;10.55;;;5.55;;
19059;SDS011;9663;48.996;8.334;2023-02-11T00:05:55;10.80;;;4.90;;
19059;SDS011;9663;48.996;8.334;2023-02-11T00:08:25;10.82;;;5.15;;
19059;SDS011;9663;48.996;8.334;2023-02-11T00:10:52;11.05;;;5.43;;
19059;SDS011;9663;48.996;8.334;2023-02-11T00:13:20;11.07;;;5.45;;
19059;SDS011;9663;48.996;8.334;2023-02-11T00:15:47;9.68;;;5.05;;
19059;SDS011;9663;48.996;8.334;2023-02-11T00:18:13;10.57;;;4.78;;
19059;SDS011;9663;48.996;8.334;2023-02-11T00:20:39;11.60;;;5.38;;
19059;SDS011;9663;48.996;8.334;2023-02-11T00:23:06;12.68;;;6.10;;
19059;SDS011;9663;48.996;8.334;2023-02-11T00:25:31;10.20;;;5.60;;
19059;SDS011;9663;48.996;8.334;2023-02-11T00:27:57;11.20;;;5.38;;
19059;SDS011;9663;48.996;8.334;2023-02-11T00:30:23;11.25;;;5.45;;
19059;SDS011;9663;48.996;8.334;2023-02-11T00:32:49;11.90;;;5.45;;
19059;SDS011;9663;48.996;8.334;2023-02-11T00:35:14;11.55;;;5.57;;
19059;SDS011;9663;48.996;8.334;2023-02-11T00:37:40;12.10;;;5.20;;
19059;SDS011;9663;48.996;8.334;2023-02-11T00:40:06;11.52;;;5.82;;
19059;SDS011;9663;48.996;8.334;2023-02-11T00:42:32;11.70;;;5.75;;
19059;SDS011;9663;48.996;8.334;2023-02-11T00:44:59;10.95;;;5.55;;
19059;SDS011;9663;48.996;8.334;2023-02-11T00:47:26;11.27;;;6.03;;
19059;SDS011;9663;48.996;8.334;2023-02-11T00:49:51;11.98;;;5.50;;
19059;SDS011;9663;48.996;8.334;2023-02-11T00:52:17;12.48;;;5.95;;
19059;SDS011;9663;48.996;8.334;2023-02-11T00:54:43;11.25;;;5.38;;
19059;SDS011;9663;48.996;8.334;2023-02-11T00:57:09;11.77;;;6.10;;
19059;SDS011;9663;48.996;8.334;2023-02-11T00:59:34;12.10;;;6.03;;
19059;SDS011;9663;48.996;8.334;2023-02-11T01:02:00;12.40;;;6.20;;
19059;SDS011;9663;48.996;8.334;2023-02-11T01:04:26;12.00;;;5.80;;
19059;SDS011;9663;48.996;8.334;2023-02-11T01:06:51;12.30;;;6.30;;
19059;SDS011;9663;48.996;8.334;2023-02-11T01:09:17;11.60;;;6.05;;
19059;SDS011;9663;48.996;8.334;2023-02-11T01:11:45;12.50;;;6.22;;
19059;SDS011;9663;48.996;8.334;2023-02-11T01:14:11;13.15;;;6.28;;
19059;SDS011;9663;48.996;8.334;2023-02-11T01:16:37;13.77;;;6.82;;
19059;SDS011;9663;48.996;8.334;2023-02-11T01:19:02;11.65;;;6.57;;
19059;SDS011;9663;48.996;8.334;2023-02-11T01:21:28;11.95;;;5.78;;
19059;SDS011;9663;48.996;8.334;2023-02-11T01:23:54;12.40;;;6.25;;
19059;SDS011;9663;48.996;8.334;2023-02-11T01:26:19;11.60;;;6.40;;
19059;SDS011;9663;48.996;8.334;2023-02-11T01:28:45;12.90;;;6.10;;
19059;SDS011;9663;48.996;8.334;2023-02-11T01:31:12;11.40;;;6.15;;
19059;SDS011;9663;48.996;8.334;2023-02-11T01:33:38;12.45;;;6.30;;
19059;SDS011;9663;48.996;8.334;2023-02-11T01:36:04;11.88;;;6.10;;
19059;SDS011;9663;48.996;8.334;2023-02-11T01:38:32;12.75;;;6.13;;
19059;SDS011;9663;48.996;8.334;2023-02-11T01:40:59;13.93;;;6.57;;
19059;SDS011;9663;48.996;8.334;2023-02-11T01:43:36;13.77;;;7.10;;
19059;SDS011;9663;48.996;8.334;2023-02-11T01:46:17;11.13;;;6.10;;
19059;SDS011;9663;48.996;8.334;2023-02-11T01:49:26;13.55;;;6.50;;
19059;SDS011;9663;48.996;8.334;2023-02-11T01:51:52;11.77;;;6.20;;
19059;SDS011;9663;48.996;8.334;2023-02-11T01:54:27;12.52;;;6.25;;
19059;SDS011;9663;48.996;8.334;2023-02-11T01:57:17;10.65;;;5.90;;
19059;SDS011;9663;48.996;8.334;2023-02-11T02:02:36;11.35;;;5.68;;
19059;SDS011;9663;48.996;8.334;2023-02-11T02:10:46;12.52;;;5.88;;
19059;SDS011;9663;48.996;8.334;2023-02-11T02:13:20;12.10;;;6.18;;
19059;SDS011;9663;48.996;8.334;2023-02-11T02:15:50;13.50;;;6.65;;
19059;SDS011;9663;48.996;8.334;2023-02-11T02:33:12;11.65;;;6.22;;
19059;SDS011;9663;48.996;8.334;2023-02-11T02:39:13;10.70;;;5.53;;
19059;SDS011;9663;48.996;8.334;2023-02-11T02:41:48;12.00;;;5.90;;
19059;SDS011;9663;48.996;8.334;2023-02-11T02:44:17;13.15;;;6.40;;
19059;SDS011;9663;48.996;8.334;2023-02-11T02:46:44;14.18;;;6.35;;
19059;SDS011;9663;48.996;8.334;2023-02-11T02:49:13;14.30;;;6.55;;
19059;SDS011;9663;48.996;8.334;2023-02-11T03:05:47;11.77;;;5.63;;
19059;SDS011;9663;48.996;8.334;2023-02-11T03:08:29;12.23;;;6.18;;
19059;SDS011;9663;48.996;8.334;2023-02-11T03:11:09;12.25;;;5.90;;
19059;SDS011;9663;48.996;8.334;2023-02-11T03:13:40;11.82;;;5.50;;
19059;SDS011;9663;48.996;8.334;2023-02-11T03:16:30;11.50;;;5.93;;
19059;SDS011;9663;48.996;8.334;2023-02-11T03:19:02;10.65;;;5.38;;
19059;SDS011;9663;48.996;8.334;2023-02-11T03:21:38;10.93;;;5.82;;
19059;SDS011;9663;48.996;8.334;2023-02-11T03:24:12;12.43;;;6.32;;
19059;SDS011;9663;48.996;8.334;2023-02-11T03:26:48;15.45;;;6.95;;
19059;SDS011;9663;48.996;8.334;2023-02-11T03:29:33;12.32;;;6.47;;
19059;SDS011;9663;48.996;8.334;2023-02-11T03:32:36;13.68;;;6.80;;
19059;SDS011;9663;48.996;8.334;2023-02-11T03:37:51;13.43;;;5.82;;
19059;SDS011;9663;48.996;8.334;2023-02-11T03:40:30;12.18;;;6.30;;
19059;SDS011;9663;48.996;8.334;2023-02-11T03:43:04;12.07;;;6.22;;
19059;SDS011;9663;48.996;8.334;2023-02-11T03:45:54;12.23;;;6.28;;
19059;SDS011;9663;48.996;8.334;2023-02-11T03:48:32;12.90;;;6.47;;
19059;SDS011;9663;48.996;8.334;2023-02-11T03:51:05;11.55;;;6.05;;
19059;SDS011;9663;48.996;8.334;2023-02-11T03:53:35;11.90;;;6.03;;
19059;SDS011;9663;48.996;8.334;2023-02-11T03:56:05;12.48;;;6.03;;
19059;SDS011;9663;48.996;8.334;2023-02-11T03:58:37;11.48;;;6.20;;
19059;SDS011;9663;48.996;8.334;2023-02-11T04:01:02;11.52;;;6.05;;
19059;SDS011;9663;48.996;8.334;2023-02-11T04:03:32;13.80;;;6.45;;
19059;SDS011;9663;48.996;8.334;2023-02-11T04:05:58;11.68;;;6.13;;
19059;SDS011;9663;48.996;8.334;2023-02-11T04:08:24;13.75;;;5.90;;
19059;SDS011;9663;48.996;8.334;2023-02-11T04:10:49;13.45;;;6.80;;
19059;SDS011;9663;48.996;8.334;2023-02-11T04:13:15;12.68;;;6.32;;
19059;SDS011;9663;48.996;8.334;2023-02-11T04:15:40;11.45;;;5.70;;
19059;SDS011;9663;48.996;8.334;2023-02-11T04:18:06;12.52;;;6.32;;
19059;SDS011;9663;48.996;8.334;2023-02-11T04:20:32;11.65;;;5.95;;
19059;SDS011;9663;48.996;8.334;2023-02-11T04:22:57;12.10;;;6.30;;
19059;SDS011;9663;48.996;8.334;2023-02-11T04:25:23;12.20;;;5.80;;
19059;SDS011;9663;48.996;8.334;2023-02-11T04:27:50;13.38;;;6.82;;
19059;SDS011;9663;48.996;8.334;2023-02-11T04:30:16;12.13;;;6.35;;
19059;SDS011;9663;48.996;8.334;2023-02-11T04:32:41;12.98;;;6.38;;
19059;SDS011;9663;48.996;8.334;2023-02-11T04:35:07;11.73;;;6.05;;
19059;SDS011;9663;48.996;8.334;2023-02-11T04:37:33;13.75;;;6.70;;
19059;SDS011;9663;48.996;8.334;2023-02-11T04:39:59;13.25;;;6.40;;
19059;SDS011;9663;48.996;8.334;2023-02-11T04:42:25;13.40;;;6.60;;
19059;SDS011;9663;48.996;8.334;2023-02-11T04:44:51;12.07;;;5.45;;
19059;SDS011;9663;48.996;8.334;2023-02-11T04:47:17;13.60;;;7.10;;
19059;SDS011;9663;48.996;8.334;2023-02-11T04:49:42;11.80;;;6.18;;
19059;SDS011;9663;48.996;8.334;2023-02-11T04:52:08;12.15;;;6.75;;
19059;SDS011;9663;48.996;8.334;2023-02-11T04:54:34;12.40;;;6.40;;
19059;SDS011;9663;48.996;8.334;2023-02-11T04:57:00;12.43;;;6.93;;
19059;SDS011;9663;48.996;8.334;2023-02-11T04:59:26;12.00;;;6.22;;
19059;SDS011;9663;48.996;8.334;2023-02-11T05:01:51;12.38;;;6.40;;
19059;SDS011;9663;48.996;8.334;2023-02-11T05:04:17;12.82;;;6.32;;
19059;SDS011;9663;48.996;8.334;2023-02-11T05:06:43;13.18;;;6.18;;
19059;SDS011;9663;48.996;8.334;2023-02-11T05:09:11;15.20;;;7.18;;
19059;SDS011;9663;48.996;8.334;2023-02-11T05:11:37;11.57;;;6.00;;
19059;SDS011;9663;48.996;8.334;2023-02-11T05:14:04;12.77;;;7.13;;
19059;SDS011;9663;48.996;8.334;2023-02-11T05:16:31;11.68;;;6.60;;
19059;SDS011;9663;48.996;8.334;2023-02-11T05:18:57;12.38;;;6.57;;
19059;SDS011;9663;48.996;8.334;2023-02-11T05:21:23;12.65;;;6.38;;
19059;SDS011;9663;48.996;8.334;2023-02-11T05:23:49;10.60;;;5.93;;
19059;SDS011;9663;48.996;8.334;2023-02-11T05:26:15;11.93;;;6.20;;
19059;SDS011;9663;48.996;8.334;2023-02-11T05:28:41;12.95;;;6.70;;
19059;SDS011;9663;48.996;8.334;2023-02-11T05:31:08;14.45;;;6.55;;
19059;SDS011;9663;48.996;8.334;2023-02-11T05:33:35;10.68;;;5.25;;
19059;SDS011;9663;48.996;8.334;2023-02-11T05:36:02;11.48;;;6.00;;
19059;SDS011;9663;48.996;8.334;2023-02-11T05:38:31;12.00;;;6.43;;
19059;SDS011;9663;48.996;8.334;2023-02-11T05:40:57;10.80;;;5.88;;
19059;SDS011;9663;48.996;8.334;2023-02-11T05:43:23;12.43;;;6.57;;
19059;SDS011;9663;48.996;8.334;2023-02-11T05:45:49;11.35;;;6.32;;
19059;SDS011;9663;48.996;8.334;2023-02-11T05:48:15;10.88;;;6.07;;
19059;SDS011;9663;48.996;8.334;2023-02-11T05:50:41;11.00;;;6.43;;
19059;SDS011;9663;48.996;8.334;2023-02-11T05:53:07;11.23;;;5.65;;
19059;SDS011;9663;48.996;8.334;2023-02-11T05:55:33;11.57;;;5.95;;
19059;SDS011;9663;48.996;8.334;2023-02-11T05:57:59;10.15;;;5.43;;
19059;SDS011;9663;48.996;8.334;2023-02-11T06:00:24;11.38;;;5.50;;
19059;SDS011;9663;48.996;8.334;2023-02-11T06:02:50;11.25;;;5.50;;
19059;SDS011;9663;48.996;8.334;2023-02-11T06:05:16;12.63;;;6.00;;
19059;SDS011;9663;48.996;8.334;2023-02-11T06:07:42;13.13;;;5.30;;
19059;SDS011;9663;48.996;8.334;2023-02-11T06:10:08;11.23;;;4.97;;
19059;SDS011;9663;48.996;8.334;2023-02-11T06:12:35;10.32;;;5.30;;
19059;SDS011;9663;48.996;8.334;2023-02-11T06:15:02;10.95;;;5.85;;
19059;SDS011;9663;48.996;8.334;2023-02-11T06:17:30;11.10;;;5.68;;
19059;SDS011;9663;48.996;8.334;2023-02-11T06:19:57;10.93;;;6.18;;
19059;SDS011;9663;48.996;8.334;2023-02-11T06:22:25;11.43;;;6.28;;
19059;SDS011;9663;48.996;8.334;2023-02-11T06:24:51;12.85;;;7.30;;
19059;SDS011;9663;48.996;8.334;2023-02-11T06:27:17;11.57;;;6.15;;
19059;SDS011;9663;48.996;8.334;2023-02-11T06:29:43;12.55;;;6.22;;
19059;SDS011;9663;48.996;8.334;2023-02-11T06:32:10;11.80;;;6.25;;
19059;SDS011;9663;48.996;8.334;2023-02-11T06:34:36;12.55;;;6.55;;
19059;SDS011;9663;48.996;8.334;2023-02-11T06:37:02;11.25;;;6.20;;
19059;SDS011;9663;48.996;8.334;2023-02-11T06:39:28;11.98;;;5.85;;
19059;SDS011;9663;48.996;8.334;2023-02-11T06:41:54;12.73;;;6.30;;
19059;SDS011;9663;48.996;8.334;2023-02-11T06:44:20;13.25;;;6.65;;
19059;SDS011;9663;48.996;8.334;2023-02-11T06:46:45;12.38;;;6.65;;
19059;SDS011;9663;48.996;8.334;2023-02-11T06:49:11;11.98;;;6.47;;
19059;SDS011;9663;48.996;8.334;2023-02-11T06:51:37;12.15;;;6.50;;
19059;SDS011;9663;48.996;8.334;2023-02-11T06:54:03;13.77;;;7.22;;
19059;SDS011;9663;48.996;8.334;2023-02-11T06:56:31;12.43;;;6.60;;
19059;SDS011;9663;48.996;8.334;2023-02-11T06:58:57;13.48;;;7.05;;
19059;SDS011;9663;48.996;8.334;2023-02-11T07:01:24;15.02;;;7.00;;
19059;SDS011;9663;48.996;8.334;2023-02-11T07:03:52;14.15;;;7.15;;
19059;SDS011;9663;48.996;8.334;2023-02-11T07:06:19;14.27;;;6.88;;
19059;SDS011;9663;48.996;8.334;2023-02-11T07:08:49;12.90;;;6.88;;
19059;SDS011;9663;48.996;8.334;2023-02-11T07:11:16;13.60;;;7.03;;
19059;SDS011;9663;48.996;8.334;2023-02-11T07:13:48;11.88;;;6.60;;
19059;SDS011;9663;48.996;8.334;2023-02-11T07:16:16;14.15;;;7.90;;
19059;SDS011;9663;48.996;8.334;2023-02-11T07:18:43;14.82;;;7.75;;
19059;SDS011;9663;48.996;8.334;2023-02-11T07:21:11;17.45;;;7.88;;
19059;SDS011;9663;48.996;8.334;2023-02-11T07:23:40;14.57;;;7.10;;
19059;SDS011;9663;48.996;8.334;2023-02-11T07:26:07;14.30;;;7.15;;
19059;SDS011;9663;48.996;8.334;2023-02-11T07:28:37;15.60;;;7.78;;
19059;SDS011;9663;48.996;8.334;2023-02-11T07:31:14;13.20;;;6.63;;
19059;SDS011;9663;48.996;8.334;2023-02-11T07:33:44;12.88;;;6.78;;
19059;SDS011;9663;48.996;8.334;2023-02-11T07:36:10;16.80;;;7.93;;
19059;SDS011;9663;48.996;8.334;2023-02-11T07:38:38;13.18;;;6.78;;
19059;SDS011;9663;48.996;8.334;2023-02-11T07:41:06;11.77;;;6.88;;
19059;SDS011;9663;48.996;8.334;2023-02-11T07:43:35;11.00;;;6.00;;
19059;SDS011;9663;48.996;8.334;2023-02-11T07:46:03;12.93;;;7.22;;
19059;SDS011;9663;48.996;8.334;2023-02-11T07:48:34;15.30;;;8.45;;
19059;SDS011;9663;48.996;8.334;2023-02-11T07:51:10;14.07;;;7.43;;
19059;SDS011;9663;48.996;8.334;2023-02-11T07:53:49;14.00;;;7.75;;
19059;SDS011;9663;48.996;8.334;2023-02-11T07:56:16;14.02;;;7.70;;
19059;SDS011;9663;48.996;8.334;2023-02-11T07:58:43;15.02;;;8.23;;
19059;SDS011;9663;48.996;8.334;2023-02-11T08:01:11;15.88;;;8.10;;
19059;SDS011;9663;48.996;8.334;2023-02-11T08:03:40;15.60;;;8.20;;
19059;SDS011;9663;48.996;8.334;2023-02-11T08:06:11;14.60;;;7.78;;
19059;SDS011;9663;48.996;8.334;2023-02-11T08:08:40;17.38;;;8.90;;
19059;SDS011;9663;48.996;8.334;2023-02-11T08:13:34;16.35;;;8.73;;
19059;SDS011;9663;48.996;8.334;2023-02-11T08:16:01;17.10;;;8.27;;
19059;SDS011;9663;48.996;8.334;2023-02-11T08:18:29;18.10;;;9.48;;
19059;SDS011;9663;48.996;8.334;2023-02-11T08:20:55;15.73;;;8.60;;
19059;SDS011;9663;48.996;8.334;2023-02-11T08:23:21;14.93;;;8.10;;
19059;SDS011;9663;48.996;8.334;2023-02-11T08:25:47;17.02;;;8.63;;
19059;SDS011;9663;48.996;8.334;2023-02-11T08:28:12;16.00;;;8.68;;
19059;SDS011;9663;48.996;8.334;2023-02-11T08:30:38;15.63;;;8.55;;
19059;SDS011;9663;48.996;8.334;2023-02-11T08:33:04;14.65;;;7.97;;
19059;SDS011;9663;48.996;8.334;2023-02-11T08:35:29;13.95;;;8.15;;
19059;SDS011;9663;48.996;8.334;2023-02-11T08:37:55;13.70;;;7.82;;
19059;SDS011;9663;48.996;8.334;2023-02-11T08:40:21;16.23;;;8.82;;
19059;SDS011;9663;48.996;8.334;2023-02-11T08:42:46;16.80;;;8.50;;
19059;SDS011;9663;48.996;8.334;2023-02-11T08:45:12;17.00;;;8.65;;
19059;SDS011;9663;48.996;8.334;2023-02-11T08:47:38;15.10;;;8.40;;
19059;SDS011;9663;48.996;8.334;2023-02-11T08:50:04;15.95;;;7.43;;
19059;SDS011;9663;48.996;8.334;2023-02-11T08:52:30;14.25;;;8.02;;
19059;SDS011;9663;48.996;8.334;2023-02-11T08:54:56;14.63;;;8.05;;
19059;SDS011;9663;48.996;8.334;2023-02-11T08:57:22;15.70;;;7.97;;
19059;SDS011;9663;48.996;8.334;2023-02-11T08:59:48;14.90;;;7.53;;
19059;SDS011;9663;48.996;8.334;2023-02-11T09:02:14;13.23;;;7.32;;
19059;SDS011;9663;48.996;8.334;2023-02-11T09:04:39;12.60;;;7.43;;
19059;SDS011;9663;48.996;8.334;2023-02-11T09:07:05;13.43;;;7.45;;
19059;SDS011;9663;48.996;8.334;2023-02-11T09:09:31;17.25;;;8.68;;
19059;SDS011;9663;48.996;8.334;2023-02-11T09:11:57;17.70;;;9.10;;
19059;SDS011;9663;48.996;8.334;2023-02-11T09:14:25;15.10;;;8.25;;
19059;SDS011;9663;48.996;8.334;2023-02-11T09:16:51;15.85;;;8.40;;
19059;SDS011;9663;48.996;8.334;2023-02-11T09:19:17;13.32;;;7.30;;
19059;SDS011;9663;48.996;8.334;2023-02-11T09:21:44;14.20;;;8.98;;
19059;SDS011;9663;48.996;8.334;2023-02-11T09:24:10;15.10;;;9.05;;
19059;SDS011;9663;48.996;8.334;2023-02-11T09:26:36;15.20;;;8.95;;
19059;SDS011;9663;48.996;8.334;2023-02-11T09:29:02;15.88;;;8.40;;
19059;SDS011;9663;48.996;8.334;2023-02-11T09:31:30;16.48;;;9.07;;
19059;SDS011;9663;48.996;8.334;2023-02-11T09:33:58;15.98;;;9.52;;
19059;SDS011;9663;48.996;8.334;2023-02-11T09:36:35;16.55;;;8.80;;
19059;SDS011;9663;48.996;8.334;2023-02-11T09:39:05;13.52;;;7.78;;
19059;SDS011;9663;48.996;8.334;2023-02-11T09:41:39;15.52;;;8.68;;
19059;SDS011;9663;48.996;8.334;2023-02-11T09:44:37;12.93;;;7.43;;
19059;SDS011;9663;48.996;8.334;2023-02-11T09:47:04;14.55;;;8.20;;
19059;SDS011;9663;48.996;8.334;2023-02-11T09:49:52;12.68;;;7.38;;
19059;SDS011;9663;48.996;8.334;2023-02-11T09:52:29;13.82;;;8.35;;
19059;SDS011;9663;48.996;8.334;2023-02-11T09:58:21;14.23;;;8.32;;
19059;SDS011;9663;48.996;8.334;2023-02-11T10:03:56;14.10;;;8.05;;
19059;SDS011;9663;48.996;8.334;2023-02-11T10:15:44;12.88;;;7.97;;
19059;SDS011;9663;48.996;8.334;2023-02-11T10:18:45;12.23;;;7.10;;
19059;SDS011;9663;48.996;8.334;2023-02-11T10:23:51;12.80;;;7.07;;
19059;SDS011;9663;48.996;8.334;2023-02-11T10:26:25;12.80;;;7.47;;
19059;SDS011;9663;48.996;8.334;2023-02-11T10:29:04;13.75;;;7.07;;
19059;SDS011;9663;48.996;8.334;2023-02-11T10:32:00;11.98;;;7.15;;
19059;SDS011;9663;48.996;8.334;2023-02-11T10:34:38;11.52;;;6.70;;
19059;SDS011;9663;48.996;8.334;2023-02-11T10:37:07;12.57;;;6.75;;
19059;SDS011;9663;48.996;8.334;2023-02-11T10:39:37;10.70;;;6.53;;
19059;SDS011;9663;48.996;8.334;2023-02-11T10:42:06;12.60;;;6.93;;
19059;SDS011;9663;48.996;8.334;2023-02-11T10:44:37;12.50;;;7.60;;
19059;SDS011;9663;48.996;8.334;2023-02-11T10:47:15;13.20;;;7.47;;
19059;SDS011;9663;48.996;8.334;2023-02-11T10:49:46;11.93;;;7.20;;
19059;SDS011;9663;48.996;8.334;2023-02-11T10:54:54;12.27;;;7.57;;
19059;SDS011;9663;48.996;8.334;2023-02-11T10:57:36;12.10;;;7.45;;
19059;SDS011;9663;48.996;8.334;2023-02-11T11:00:22;12.65;;;6.72;;
19059;SDS011;9663;48.996;8.334;2023-02-11T11:03:00;11.98;;;7.30;;
19059;SDS011;9663;48.996;8.334;2023-02-11T11:05:32;12.15;;;6.88;;
19059;SDS011;9663;48.996;8.334;2023-02-11T11:08:15;13.15;;;6.75;;
19059;SDS011;9663;48.996;8.334;2023-02-11T11:10:44;11.93;;;7.00;;
19059;SDS011;9663;48.996;8.334;2023-02-11T11:16:08;12.50;;;6.88;;
19059;SDS011;9663;48.996;8.334;2023-02-11T11:18:44;10.27;;;6.15;;
19059;SDS011;9663;48.996;8.334;2023-02-11T11:23:53;12.70;;;7.32;;
19059;SDS011;9663;48.996;8.334;2023-02-11T11:26:25;10.65;;;6.53;;
19059;SDS011;9663;48.996;8.334;2023-02-11T11:29:08;9.18;;;5.65;;
19059;SDS011;9663;48.996;8.334;2023-02-11T11:31:55;12.45;;;6.63;;
19059;SDS011;9663;48.996;8.334;2023-02-11T11:34:29;11.10;;;6.22;;
19059;SDS011;9663;48.996;8.334;2023-02-11T11:36:59;10.60;;;6.53;;
19059;SDS011;9663;48.996;8.334;2023-02-11T11:42:36;11.27;;;5.95;;
19059;SDS011;9663;48.996;8.334;2023-02-11T11:51:01;9.45;;;5.22;;
19059;SDS011;9663;48.996;8.334;2023-02-11T11:53:35;8.52;;;5.00;;
19059;SDS011;9663;48.996;8.334;2023-02-11T11:56:31;8.38;;;5.40;;
19059;SDS011;9663;48.996;8.334;2023-02-11T11:59:04;7.45;;;4.38;;
19059;SDS011;9663;48.996;8.334;2023-02-11T12:05:02;9.25;;;5.85;;
19059;SDS011;9663;48.996;8.334;2023-02-11T12:07:55;8.25;;;5.05;;
19059;SDS011;9663;48.996;8.334;2023-02-11T12:10:56;8.10;;;5.05;;
19059;SDS011;9663;48.996;8.334;2023-02-11T12:14:26;7.03;;;4.30;;
19059;SDS011;9663;48.996;8.334;2023-02-11T12:17:25;8.88;;;5.18;;
19059;SDS011;9663;48.996;8.334;2023-02-11T12:23:42;8.85;;;5.53;;
19059;SDS011;9663;48.996;8.334;2023-02-11T12:26:19;8.52;;;4.80;;
19059;SDS011;9663;48.996;8.334;2023-02-11T12:28:57;8.20;;;5.15;;
19059;SDS011;9663;48.996;8.334;2023-02-11T12:31:38;7.90;;;4.90;;
19059;SDS011;9663;48.996;8.334;2023-02-11T12:37:35;9.38;;;5.38;;
19059;SDS011;9663;48.996;8.334;2023-02-11T12:54:53;8.07;;;4.57;;
19059;SDS011;9663;48.996;8.334;2023-02-11T12:57:44;8.05;;;4.65;;
19059;SDS011;9663;48.996;8.334;2023-02-11T13:00:16;8.65;;;5.38;;
19059;SDS011;9663;48.996;8.334;2023-02-11T13:02:55;8.32;;;5.15;;
19059;SDS011;9663;48.996;8.334;2023-02-11T13:05:32;10.80;;;4.90;;
19059;SDS011;9663;48.996;8.334;2023-02-11T13:08:03;8.55;;;4.97;;
19059;SDS011;9663;48.996;8.334;2023-02-11T13:10:40;9.40;;;5.63;;
19059;SDS011;9663;48.996;8.334;2023-02-11T13:13:13;8.45;;;5.00;;
19059;SDS011;9663;48.996;8.334;2023-02-11T13:19:15;9.02;;;5.50;;
19059;SDS011;9663;48.996;8.334;2023-02-11T13:21:52;8.60;;;5.32;;
19059;SDS011;9663;48.996;8.334;2023-02-11T13:33:05;8.13;;;4.43;;
19059;SDS011;9663;48.996;8.334;2023-02-11T13:35:45;8.15;;;4.35;;
19059;SDS011;9663;48.996;8.334;2023-02-11T13:38:21;8.55;;;4.90;;
19059;SDS011;9663;48.996;8.334;2023-02-11T13:41:01;8.07;;;4.65;;
19059;SDS011;9663;48.996;8.334;2023-02-11T13:44:00;7.32;;;4.60;;
19059;SDS011;9663;48.996;8.334;2023-02-11T13:47:06;9.48;;;5.05;;
19059;SDS011;9663;48.996;8.334;2023-02-11T13:49:36;10.60;;;5.43;;
19059;SDS011;9663;48.996;8.334;2023-02-11T13:52:14;9.52;;;5.47;;
19059;SDS011;9663;48.996;8.334;2023-02-11T13:55:02;11.82;;;6.03;;
19059;SDS011;9663;48.996;8.334;2023-02-11T13:57:36;8.98;;;5.85;;
19059;SDS011;9663;48.996;8.334;2023-02-11T14:03:21;8.82;;;5.45;;
19059;SDS011;9663;48.996;8.334;2023-02-11T14:19:39;9.85;;;5.65;;
19059;SDS011;9663;48.996;8.334;2023-02-11T14:24:52;8.90;;;5.10;;
19059;SDS011;9663;48.996;8.334;2023-02-11T14:28:08;8.30;;;5.30;;
19059;SDS011;9663;48.996;8.334;2023-02-11T14:42:04;10.57;;;5.60;;
19059;SDS011;9663;48.996;8.334;2023-02-11T14:44:41;7.97;;;4.88;;
19059;SDS011;9663;48.996;8.334;2023-02-11T14:47:10;8.10;;;5.32;;
19059;SDS011;9663;48.996;8.334;2023-02-11T14:49:43;9.20;;;5.50;;
19059;SDS011;9663;48.996;8.334;2023-02-11T14:52:20;10.15;;;6.05;;
19059;SDS011;9663;48.996;8.334;2023-02-11T14:55:04;8.32;;;5.43;;
19059;SDS011;9663;48.996;8.334;2023-02-11T14:58:06;9.07;;;5.35;;
19059;SDS011;9663;48.996;8.334;2023-02-11T15:03:38;8.85;;;5.18;;
19059;SDS011;9663;48.996;8.334;2023-02-11T15:06:16;8.35;;;4.90;;
19059;SDS011;9663;48.996;8.334;2023-02-11T15:08:50;7.90;;;4.97;;
19059;SDS011;9663;48.996;8.334;2023-02-11T15:11:24;8.15;;;5.13;;
19059;SDS011;9663;48.996;8.334;2023-02-11T15:13:54;9.10;;;5.05;;
19059;SDS011;9663;48.996;8.334;2023-02-11T15:16:25;9.27;;;5.57;;
19059;SDS011;9663;48.996;8.334;2023-02-11T15:18:57;8.13;;;4.97;;
19059;SDS011;9663;48.996;8.334;2023-02-11T15:21:29;8.40;;;5.35;;
19059;SDS011;9663;48.996;8.334;2023-02-11T15:23:59;8.40;;;5.50;;
19059;SDS011;9663;48.996;8.334;2023-02-11T15:26:29;8.93;;;5.50;;
19059;SDS011;9663;48.996;8.334;2023-02-11T15:28:56;11.40;;;5.53;;
19059;SDS011;9663;48.996;8.334;2023-02-11T15:31:23;8.88;;;5.57;;
19059;SDS011;9663;48.996;8.334;2023-02-11T15:33:51;9.00;;;4.82;;
19059;SDS011;9663;48.996;8.334;2023-02-11T15:36:19;10.32;;;5.57;;
19059;SDS011;9663;48.996;8.334;2023-02-11T15:41:55;8.73;;;5.43;;
19059;SDS011;9663;48.996;8.334;2023-02-11T15:44:31;7.72;;;4.70;;
19059;SDS011;9663;48.996;8.334;2023-02-11T15:46:57;9.77;;;5.57;;
19059;SDS011;9663;48.996;8.334;2023-02-11T15:49:23;8.52;;;5.03;;
19059;SDS011;9663;48.996;8.334;2023-02-11T15:51:50;8.35;;;4.82;;
19059;SDS011;9663;48.996;8.334;2023-02-11T15:54:22;8.20;;;5.35;;
19059;SDS011;9663;48.996;8.334;2023-02-11T15:56:53;7.85;;;4.57;;
19059;SDS011;9663;48.996;8.334;2023-02-11T15:59:28;8.05;;;4.88;;
19059;SDS011;9663;48.996;8.334;2023-02-11T16:02:12;7.97;;;4.65;;
19059;SDS011;9663;48.996;8.334;2023-02-11T16:04:48;8.20;;;4.72;;
19059;SDS011;9663;48.996;8.334;2023-02-11T16:10:03;9.55;;;5.50;;
19059;SDS011;9663;48.996;8.334;2023-02-11T16:12:48;9.20;;;5.05;;
19059;SDS011;9663;48.996;8.334;2023-02-11T16:15:28;7.85;;;4.80;;
19059;SDS011;9663;48.996;8.334;2023-02-11T16:17:54;8.50;;;5.00;;
19059;SDS011;9663;48.996;8.334;2023-02-11T16:20:20;9.52;;;4.80;;
19059;SDS011;9663;48.996;8.334;2023-02-11T16:22:46;8.38;;;4.78;;
19059;SDS011;9663;48.996;8.334;2023-02-11T16:25:19;8.63;;;5.22;;
19059;SDS011;9663;48.996;8.334;2023-02-11T16:27:52;8.27;;;4.72;;
19059;SDS011;9663;48.996;8.334;2023-02-11T16:30:23;9.15;;;5.53;;
19059;SDS011;9663;48.996;8.334;2023-02-11T16:32:57;7.93;;;4.80;;
19059;SDS011;9663;48.996;8.334;2023-02-11T16:35:22;8.15;;;5.30;;
19059;SDS011;9663;48.996;8.334;2023-02-11T16:37:48;8.32;;;4.90;;
19059;SDS011;9663;48.996;8.334;2023-02-11T16:40:14;9.23;;;5.35;;
19059;SDS011;9663;48.996;8.334;2023-02-11T16:42:40;8.77;;;4.88;;
19059;SDS011;9663;48.996;8.334;2023-02-11T16:45:05;8.65;;;4.97;;
19059;SDS011;9663;48.996;8.334;2023-02-11T16:47:32;8.95;;;5.05;;
19059;SDS011;9663;48.996;8.334;2023-02-11T16:49:59;8.13;;;4.95;;
19059;SDS011;9663;48.996;8.334;2023-02-11T16:52:26;8.80;;;4.85;;
19059;SDS011;9663;48.996;8.334;2023-02-11T16:54:55;8.70;;;5.50;;
19059;SDS011;9663;48.996;8.334;2023-02-11T16:57:22;9.30;;;5.18;;
19059;SDS011;9663;48.996;8.334;2023-02-11T16:59:50;8.25;;;4.90;;
19059;SDS011;9663;48.996;8.334;2023-02-11T17:02:20;9.63;;;5.30;;
19059;SDS011;9663;48.996;8.334;2023-02-11T17:04:54;8.43;;;5.15;;
19059;SDS011;9663;48.996;8.334;2023-02-11T17:07:24;9.38;;;5.85;;
19059;SDS011;9663;48.996;8.334;2023-02-11T17:09:53;8.52;;;5.18;;
19059;SDS011;9663;48.996;8.334;2023-02-11T17:12:19;9.20;;;5.07;;
19059;SDS011;9663;48.996;8.334;2023-02-11T17:14:46;9.50;;;5.28;;
19059;SDS011;9663;48.996;8.334;2023-02-11T17:17:12;9.48;;;5.35;;
19059;SDS011;9663;48.996;8.334;2023-02-11T17:19:38;10.10;;;5.57;;
19059;SDS011;9663;48.996;8.334;2023-02-11T17:22:04;12.07;;;6.55;;
19059;SDS011;9663;48.996;8.334;2023-02-11T17:24:30;10.70;;;5.55;;
19059;SDS011;9663;48.996;8.334;2023-02-11T17:26:56;10.52;;;6.30;;
19059;SDS011;9663;48.996;8.334;2023-02-11T17:29:23;11.10;;;6.32;;
19059;SDS011;9663;48.996;8.334;2023-02-11T17:31:50;11.50;;;6.93;;
19059;SDS011;9663;48.996;8.334;2023-02-11T17:34:17;11.80;;;6.65;;
19059;SDS011;9663;48.996;8.334;2023-02-11T17:36:45;9.32;;;5.85;;
19059;SDS011;9663;48.996;8.334;2023-02-11T17:39:11;12.45;;;6.72;;
19059;SDS011;9663;48.996;8.334;2023-02-11T17:41:36;11.13;;;6.10;;
19059;SDS011;9663;48.996;8.334;2023-02-11T17:44:03;11.77;;;7.03;;
19059;SDS011;9663;48.996;8.334;2023-02-11T17:46:32;10.55;;;6.55;;
19059;SDS011;9663;48.996;8.334;2023-02-11T17:49:00;12.40;;;7.03;;
19059;SDS011;9663;48.996;8.334;2023-02-11T17:51:31;10.73;;;6.80;;